Time;durP1;ratioP1;P1;durP2;ratioP2;P2;SDS_P1;SDS_P2;PMS_P1;PMS_P2;Temp;Humidity;BMP_temperature;BMP_pressure;BME280_temperature;BME280_humidity;BME280_pressure;Samples;Min_cycle;Max_cycle;Signal;HPM_P1;HPM_P2
2022/12/22 03:26:14;;;;;;;59.50;32.40;;;9.10;99.90;;;;;;5012539;28;20758;-80
2022/12/22 03:28:41;;;;;;;57.10;33.03;;;9.10;99.90;;;;;;5011824;28;20599;-83
2022/12/22 03:31:08;;;;;;;55.57;31.67;;;9.10;99.90;;;;;;5012341;28;20219;-83
2022/12/22 03:33:36;;;;;;;50.30;30.00;;;9.10;99.90;;;;;;5012653;28;20584;-81
2022/12/22 03:36:05;;;;;;;52.43;31.23;;;9.10;99.90;;;;;;5013116;28;20221;-79
2022/12/22 03:38:32;;;;;;;46.87;28.37;;;9.10;99.90;;;;;;5012630;28;20230;-80
2022/12/22 03:40:59;;;;;;;50.53;28.97;;;9.10;99.90;;;;;;5014622;28;20283;-82
2022/12/22 03:49:10;;;;;;;49.47;27.93;;;9.10;99.90;;;;;;5016557;28;20252;-80
2022/12/22 03:51:40;;;;;;;58.37;33.10;;;9.00;99.90;;;;;;5015361;28;20243;-80
2022/12/22 03:54:07;;;;;;;46.93;28.70;;;9.00;99.90;;;;;;5017009;28;20495;-80
2022/12/22 03:56:35;;;;;;;46.30;28.97;;;9.00;99.90;;;;;;5016740;28;20294;-81
2022/12/22 03:59:01;;;;;;;60.97;33.93;;;9.00;99.90;;;;;;5014567;28;20199;-81
2022/12/22 04:01:28;;;;;;;60.67;32.50;;;8.90;99.90;;;;;;5014930;28;20881;-80
2022/12/22 04:03:55;;;;;;;50.27;28.87;;;8.90;99.90;;;;;;5015912;28;20588;-80
2022/12/22 04:06:24;;;;;;;56.03;32.10;;;8.90;99.90;;;;;;5015656;28;20199;-80
2022/12/22 04:08:51;;;;;;;46.70;27.30;;;8.90;99.90;;;;;;5016351;28;20238;-81
2022/12/22 04:14:03;;;;;;;46.23;27.50;;;8.90;99.90;;;;;;5016034;28;20218;-81
2022/12/22 04:16:30;;;;;;;53.37;30.77;;;8.90;99.90;;;;;;5015873;28;20681;-78
2022/12/22 04:18:57;;;;;;;53.40;29.73;;;8.90;99.90;;;;;;5015737;28;20286;-80
2022/12/22 04:21:25;;;;;;;50.83;27.90;;;8.90;99.90;;;;;;5016346;28;20282;-80
2022/12/22 04:23:52;;;;;;;47.43;27.00;;;8.90;99.90;;;;;;5015996;28;20203;-79
2022/12/22 04:26:21;;;;;;;45.73;27.40;;;8.90;99.90;;;;;;5015576;28;20569;-79
2022/12/22 04:28:48;;;;;;;41.77;25.00;;;8.90;99.90;;;;;;5035202;28;20237;-82
2022/12/22 04:31:15;;;;;;;58.97;29.20;;;8.90;99.90;;;;;;5034947;28;20247;-81
2022/12/22 04:33:41;;;;;;;45.80;28.07;;;8.90;99.90;;;;;;5034623;28;20293;-80
2022/12/22 04:36:09;;;;;;;49.77;27.87;;;8.90;99.90;;;;;;5034434;28;20646;-80
2022/12/22 04:38:38;;;;;;;42.07;24.27;;;8.90;99.90;;;;;;5034331;28;20220;-80
2022/12/22 04:41:05;;;;;;;45.90;27.33;;;8.80;99.90;;;;;;5015502;28;20214;-81
2022/12/22 04:43:32;;;;;;;63.17;32.93;;;8.80;99.90;;;;;;5015722;28;20249;-80
2022/12/22 04:46:00;;;;;;;64.63;34.10;;;8.80;99.90;;;;;;5015153;28;20206;-80
2022/12/22 04:48:28;;;;;;;63.43;33.97;;;8.80;99.90;;;;;;5018286;28;20529;-81
2022/12/22 04:50:57;;;;;;;59.30;32.87;;;8.70;99.90;;;;;;5034169;28;20326;-80
2022/12/22 04:53:25;;;;;;;64.20;35.13;;;8.70;99.90;;;;;;5035166;28;20222;-78
2022/12/22 04:55:56;;;;;;;51.90;30.80;;;8.60;99.90;;;;;;5034171;28;20207;-81
2022/12/22 04:58:23;;;;;;;53.30;31.23;;;8.60;99.90;;;;;;5034861;28;20233;-80
2022/12/22 05:00:50;;;;;;;77.53;40.30;;;8.60;99.90;;;;;;5033880;28;20578;-80
2022/12/22 05:03:16;;;;;;;66.03;36.20;;;8.50;99.90;;;;;;5034203;28;20287;-80
2022/12/22 05:05:43;;;;;;;59.37;33.03;;;8.50;99.90;;;;;;5034627;28;20211;-80
2022/12/22 05:08:10;;;;;;;60.23;34.63;;;8.50;99.90;;;;;;5029592;28;20203;-81
2022/12/22 05:10:37;;;;;;;62.33;34.67;;;8.50;99.90;;;;;;5014764;28;20651;-80
2022/12/22 05:13:06;;;;;;;73.13;38.30;;;8.50;99.90;;;;;;5016216;28;20794;-79
2022/12/22 05:15:35;;;;;;;58.50;33.57;;;8.50;99.90;;;;;;5034143;28;20502;-79
2022/12/22 05:18:02;;;;;;;57.97;31.53;;;8.50;99.90;;;;;;5033224;28;20215;-81
2022/12/22 05:20:30;;;;;;;64.97;37.33;;;8.40;99.90;;;;;;5034568;28;20460;-80
2022/12/22 05:22:57;;;;;;;57.00;32.03;;;8.40;99.90;;;;;;5016454;28;20207;-81
2022/12/22 05:25:24;;;;;;;58.83;31.70;;;8.40;99.90;;;;;;5014621;28;20242;-81
2022/12/22 05:27:51;;;;;;;54.67;29.97;;;8.30;99.90;;;;;;5016727;28;20200;-80
2022/12/22 05:30:20;;;;;;;47.23;28.20;;;8.30;99.90;;;;;;5033854;28;20203;-79
2022/12/22 05:32:47;;;;;;;47.20;27.37;;;8.20;99.90;;;;;;5034636;28;20222;-80
2022/12/22 05:35:14;;;;;;;42.17;25.10;;;8.20;99.90;;;;;;5023660;28;20219;-80
2022/12/22 05:37:42;;;;;;;39.80;23.63;;;8.10;99.90;;;;;;5014298;28;20217;-80
2022/12/22 05:40:10;;;;;;;43.87;24.70;;;8.00;99.90;;;;;;5014368;28;20211;-80
2022/12/22 05:42:38;;;;;;;42.20;25.50;;;8.00;99.90;;;;;;5014753;28;20191;-80
2022/12/22 05:45:07;;;;;;;46.03;27.47;;;7.90;99.90;;;;;;5013754;28;20195;-80
2022/12/22 05:47:36;;;;;;;46.77;28.40;;;7.80;99.90;;;;;;5013255;28;20211;-80
2022/12/22 05:50:03;;;;;;;37.17;22.73;;;7.70;99.90;;;;;;5013519;28;20249;-80
2022/12/22 05:52:30;;;;;;;36.50;23.73;;;7.70;99.90;;;;;;5013720;28;20330;-81
2022/12/22 05:54:57;;;;;;;30.73;20.40;;;7.60;99.90;;;;;;5014502;28;20200;-81
2022/12/22 05:57:24;;;;;;;28.87;19.17;;;7.70;99.90;;;;;;5013738;28;20195;-81
2022/12/22 05:59:51;;;;;;;24.33;16.53;;;7.70;99.90;;;;;;5014599;28;20687;-80
2022/12/22 06:02:18;;;;;;;22.83;13.53;;;7.80;99.90;;;;;;5013431;28;20231;-80
2022/12/22 06:04:47;;;;;;;19.87;11.73;;;7.80;99.90;;;;;;5013835;28;20191;-80
2022/12/22 06:07:13;;;;;;;15.87;8.70;;;7.90;99.90;;;;;;5013223;28;20200;-82
2022/12/22 06:09:40;;;;;;;14.97;7.60;;;8.00;99.90;;;;;;5013946;28;20234;-82
2022/12/22 06:12:08;;;;;;;20.50;7.93;;;8.00;99.90;;;;;;5013370;28;20302;-82
2022/12/22 06:14:35;;;;;;;17.37;7.30;;;8.00;99.90;;;;;;5014086;28;20290;-82
2022/12/22 06:17:02;;;;;;;12.73;6.97;;;8.10;99.90;;;;;;5013585;28;20204;-82
2022/12/22 06:19:28;;;;;;;15.90;6.63;;;8.20;99.90;;;;;;5013130;28;20501;-82
2022/12/22 06:21:57;;;;;;;14.20;6.80;;;8.20;99.90;;;;;;5013752;28;20659;-83
2022/12/22 06:24:24;;;;;;;14.83;7.03;;;8.30;99.90;;;;;;5014129;28;20207;-83
2022/12/22 06:26:51;;;;;;;11.03;6.40;;;8.20;99.90;;;;;;5013344;28;20607;-82
2022/12/22 06:29:17;;;;;;;16.37;6.87;;;8.20;99.90;;;;;;5013869;28;20223;-82
2022/12/22 06:31:44;;;;;;;13.60;6.73;;;8.00;99.90;;;;;;5014063;28;20223;-83
2022/12/22 06:34:11;;;;;;;15.80;8.47;;;8.00;99.90;;;;;;5013050;28;20219;-82
2022/12/22 06:36:39;;;;;;;23.30;12.03;;;8.00;99.90;;;;;;5013703;28;20237;-83
2022/12/22 06:39:07;;;;;;;19.13;11.60;;;7.90;99.90;;;;;;5013918;28;20203;-83
2022/12/22 06:44:19;;;;;;;18.13;7.60;;;7.90;99.90;;;;;;5025515;28;20727;-83
2022/12/22 06:46:45;;;;;;;13.10;6.00;;;7.90;99.90;;;;;;5032836;28;20249;-82
2022/12/22 06:49:12;;;;;;;14.73;7.47;;;7.80;99.90;;;;;;5032157;28;20281;-83
2022/12/22 06:51:39;;;;;;;15.47;6.67;;;7.90;99.90;;;;;;5020285;28;20293;-83
2022/12/22 06:54:08;;;;;;;10.90;5.97;;;7.80;99.90;;;;;;5013042;28;20199;-83
2022/12/22 06:56:35;;;;;;;10.10;6.53;;;7.80;99.90;;;;;;5013944;28;20206;-82
2022/12/22 06:59:02;;;;;;;13.33;8.87;;;7.80;99.90;;;;;;5013497;28;20686;-82
2022/12/22 07:01:29;;;;;;;14.70;8.50;;;7.80;99.90;;;;;;5013561;28;20310;-82
2022/12/22 07:03:55;;;;;;;14.70;8.60;;;7.80;99.90;;;;;;5013225;28;20234;-82
2022/12/22 07:06:22;;;;;;;12.00;6.73;;;7.90;99.90;;;;;;5014139;28;20200;-82
2022/12/22 07:08:49;;;;;;;13.23;5.90;;;7.90;99.90;;;;;;5032527;28;20191;-83
2022/12/22 07:11:17;;;;;;;9.47;6.37;;;7.90;99.90;;;;;;5031426;28;20289;-82
2022/12/22 07:13:45;;;;;;;15.73;8.70;;;7.90;99.90;;;;;;5013593;28;20207;-83
2022/12/22 07:16:12;;;;;;;12.67;8.27;;;7.90;99.90;;;;;;5017883;28;20329;-84
2022/12/22 07:18:40;;;;;;;13.37;7.30;;;7.90;99.90;;;;;;5016443;28;20234;-82
2022/12/22 07:21:08;;;;;;;11.03;6.53;;;7.90;99.90;;;;;;5016902;28;20199;-82
2022/12/22 07:23:35;;;;;;;15.87;6.40;;;7.90;99.90;;;;;;5016626;28;20200;-83
2022/12/22 07:26:03;;;;;;;15.73;5.57;;;7.90;99.90;;;;;;5016639;28;20500;-83
2022/12/22 07:28:32;;;;;;;13.53;4.30;;;7.90;99.90;;;;;;5017326;28;20211;-83
2022/12/22 07:30:59;;;;;;;9.27;3.57;;;7.90;99.90;;;;;;5028623;28;20202;-82
2022/12/22 07:33:26;;;;;;;10.63;4.47;;;7.90;99.90;;;;;;5036396;28;20373;-82
2022/12/22 07:36:04;;;;;;;11.13;4.03;;;7.90;99.90;;;;;;5036305;28;20281;-82
2022/12/22 07:38:36;;;;;;;10.17;4.77;;;7.90;99.90;;;;;;5016709;28;20297;-81
2022/12/22 07:42:43;;;;;;;11.93;4.87;;;7.90;99.90;;;;;;5016570;28;20208;-83
2022/12/22 07:43:51;;;;;;;11.67;5.57;;;7.90;99.90;;;;;;5016485;28;20598;-81
2022/12/22 07:46:18;;;;;;;11.17;4.83;;;7.90;99.90;;;;;;5016929;28;20632;-82
2022/12/22 07:51:33;;;;;;;13.37;5.37;;;7.80;99.90;;;;;;5015554;28;20353;-80
2022/12/22 07:54:00;;;;;;;10.07;4.43;;;7.80;99.90;;;;;;5019696;28;20856;-82
2022/12/22 07:56:27;;;;;;;11.37;3.10;;;7.90;99.90;;;;;;5023711;28;20249;-83
2022/12/22 07:58:55;;;;;;;14.73;4.60;;;7.90;99.90;;;;;;5025417;28;20226;-82
2022/12/22 08:01:22;;;;;;;7.60;3.53;;;7.90;99.90;;;;;;5016707;28;20839;-82
2022/12/22 08:03:49;;;;;;;10.07;3.20;;;7.80;99.90;;;;;;5015623;28;20283;-82
2022/12/22 08:06:16;;;;;;;6.73;2.97;;;7.90;99.90;;;;;;5016238;28;20215;-82
2022/12/22 08:08:43;;;;;;;10.60;3.60;;;7.90;99.90;;;;;;5016188;28;20567;-80
2022/12/22 08:11:10;;;;;;;9.07;3.20;;;7.80;99.90;;;;;;5025009;28;20233;-80
2022/12/22 08:13:37;;;;;;;12.10;3.70;;;7.80;99.90;;;;;;5018885;28;20219;-80
2022/12/22 08:16:08;;;;;;;9.67;2.83;;;7.80;99.90;;;;;;5015387;28;20282;-80
2022/12/22 08:18:36;;;;;;;6.57;2.37;;;7.70;99.90;;;;;;5014890;28;20200;-80
2022/12/22 08:21:04;;;;;;;11.60;2.63;;;7.70;99.90;;;;;;5029170;28;20202;-80
2022/12/22 08:23:31;;;;;;;11.07;3.17;;;7.60;99.90;;;;;;5035055;28;20495;-81
2022/12/22 08:26:03;;;;;;;10.93;3.23;;;7.50;99.90;;;;;;5033764;28;20226;-80
2022/12/22 08:28:34;;;;;;;8.43;3.10;;;7.40;99.90;;;;;;5027598;28;20195;-80
2022/12/22 08:31:03;;;;;;;9.40;2.97;;;7.40;99.90;;;;;;5015036;28;20199;-80
2022/12/22 08:33:32;;;;;;;13.73;3.50;;;7.40;99.90;;;;;;5031763;28;20313;-80
2022/12/22 08:35:59;;;;;;;10.43;3.23;;;7.50;99.90;;;;;;5034256;28;20237;-80
2022/12/22 08:38:26;;;;;;;12.70;3.23;;;7.50;99.90;;;;;;5023162;28;20557;-79
2022/12/22 08:40:53;;;;;;;13.97;3.50;;;7.50;99.90;;;;;;5014892;28;20539;-81
2022/12/22 08:43:21;;;;;;;12.03;3.00;;;7.60;99.90;;;;;;5014461;28;20202;-80
2022/12/22 08:45:48;;;;;;;9.97;3.13;;;7.60;99.90;;;;;;5020461;28;20203;-80
2022/12/22 08:48:15;;;;;;;11.83;3.30;;;7.70;99.90;;;;;;5014314;28;20203;-80
2022/12/22 08:50:43;;;;;;;14.50;2.90;;;7.80;99.90;;;;;;5014621;28;20235;-79
2022/12/22 08:53:10;;;;;;;15.00;2.80;;;7.80;99.90;;;;;;5029572;28;20230;-79
2022/12/22 08:55:37;;;;;;;13.17;3.00;;;7.90;99.90;;;;;;5014429;28;20206;-80
2022/12/22 08:58:04;;;;;;;18.23;4.17;;;8.00;99.90;;;;;;5014517;28;20195;-80
2022/12/22 09:00:31;;;;;;;16.97;4.90;;;8.10;99.90;;;;;;5033918;28;20530;-79
2022/12/22 09:02:58;;;;;;;18.13;3.90;;;8.10;99.90;;;;;;5017753;28;20231;-79
2022/12/22 09:05:25;;;;;;;13.73;3.77;;;8.20;99.90;;;;;;5014716;28;20290;-81
2022/12/22 09:07:53;;;;;;;14.43;3.70;;;8.20;99.90;;;;;;5013868;28;20239;-80
2022/12/22 09:10:20;;;;;;;15.30;4.13;;;8.20;99.90;;;;;;5014392;28;20507;-79
2022/12/22 09:12:47;;;;;;;19.70;4.77;;;8.10;99.90;;;;;;5014381;28;20306;-80
2022/12/22 09:15:14;;;;;;;11.00;4.20;;;8.10;99.90;;;;;;5013487;28;20208;-80
2022/12/22 09:17:42;;;;;;;13.13;4.60;;;8.20;99.90;;;;;;5014266;28;20199;-80
2022/12/22 09:20:10;;;;;;;8.63;4.00;;;8.20;99.90;;;;;;5014181;28;20202;-80
2022/12/22 09:22:36;;;;;;;18.40;5.57;;;8.30;99.90;;;;;;5013810;28;20215;-80
2022/12/22 09:25:06;;;;;;;8.27;4.47;;;8.30;99.90;;;;;;5014037;28;20257;-79
2022/12/22 09:27:33;;;;;;;17.27;5.70;;;8.30;99.90;;;;;;5014792;28;20203;-83
2022/12/22 09:30:00;;;;;;;10.83;4.80;;;8.30;99.90;;;;;;5014669;28;20238;-81
2022/12/22 09:32:28;;;;;;;21.80;5.63;;;8.30;99.90;;;;;;5014628;28;20559;-82
2022/12/22 09:34:54;;;;;;;17.70;5.70;;;8.30;99.90;;;;;;5014636;28;20584;-80
2022/12/22 09:37:21;;;;;;;16.67;5.80;;;8.30;99.90;;;;;;5022308;28;20508;-81
2022/12/22 09:39:48;;;;;;;26.77;7.00;;;8.30;99.90;;;;;;5023883;28;20237;-81
2022/12/22 09:42:19;;;;;;;16.47;5.53;;;8.30;99.90;;;;;;5015425;28;20631;-80
2022/12/22 09:44:50;;;;;;;14.40;4.70;;;8.30;99.90;;;;;;5013609;28;20203;-81
2022/12/22 09:47:22;;;;;;;9.90;3.80;;;8.30;99.90;;;;;;5021123;28;20290;-81
2022/12/22 09:49:50;;;;;;;9.83;3.60;;;8.30;99.90;;;;;;5013271;28;20302;-81
2022/12/22 09:52:30;;;;;;;11.37;2.83;;;8.30;99.90;;;;;;5035592;28;20234;-81
2022/12/22 09:54:57;;;;;;;15.03;3.80;;;8.30;99.90;;;;;;5028437;28;20270;-81
2022/12/22 09:57:29;;;;;;;15.30;2.87;;;8.30;99.90;;;;;;5012103;28;20935;-80
2022/12/22 09:59:57;;;;;;;12.93;2.70;;;8.40;99.90;;;;;;5011820;28;20202;-79
2022/12/22 10:02:32;;;;;;;7.43;3.00;;;8.40;99.90;;;;;;5012402;28;20235;-81
2022/12/22 10:05:10;;;;;;;15.07;4.03;;;8.40;99.90;;;;;;5010337;28;20226;-80
2022/12/22 10:07:41;;;;;;;12.07;3.50;;;8.40;99.90;;;;;;5023657;28;20202;-79
2022/12/22 10:10:17;;;;;;;11.53;2.70;;;8.40;99.90;;;;;;5031956;28;20209;-79
2022/12/22 10:12:45;;;;;;;14.40;2.83;;;8.50;99.90;;;;;;5032072;28;20312;-80
2022/12/22 10:15:12;;;;;;;6.73;2.70;;;8.50;99.90;;;;;;5015866;28;20269;-80
2022/12/22 10:17:39;;;;;;;9.67;2.63;;;8.50;99.90;;;;;;5012301;28;20294;-80
2022/12/22 10:20:19;;;;;;;10.23;3.53;;;8.60;99.90;;;;;;5014112;28;20229;-80
2022/12/22 10:22:48;;;;;;;8.03;3.60;;;8.60;99.90;;;;;;5031219;28;20659;-80
2022/12/22 10:25:28;;;;;;;8.83;3.70;;;8.60;99.90;;;;;;5030385;28;20226;-80
2022/12/22 10:27:58;;;;;;;20.07;5.27;;;8.70;99.90;;;;;;5025397;28;20587;-81
2022/12/22 10:30:28;;;;;;;14.67;4.90;;;8.70;99.90;;;;;;5012041;28;20211;-81
2022/12/22 10:33:06;;;;;;;13.67;3.10;;;8.70;99.90;;;;;;5022730;28;20226;-81
2022/12/22 10:35:46;;;;;;;14.47;5.13;;;8.80;99.90;;;;;;5022442;28;20290;-80
2022/12/22 10:38:22;;;;;;;11.40;3.00;;;8.80;99.90;;;;;;5033070;28;20222;-79
2022/12/22 10:40:52;;;;;;;12.10;3.33;;;8.80;99.90;;;;;;5011945;28;20218;-84
2022/12/22 10:43:23;;;;;;;9.87;2.50;;;8.80;99.90;;;;;;5012941;28;20534;-79
2022/12/22 10:45:51;;;;;;;10.90;2.47;;;8.80;99.90;;;;;;5011921;28;20214;-79
2022/12/22 10:48:24;;;;;;;9.73;2.63;;;8.80;99.90;;;;;;5012155;28;20290;-79
2022/12/22 10:50:52;;;;;;;11.20;3.87;;;8.90;99.90;;;;;;5012464;28;20507;-79
2022/12/22 10:53:19;;;;;;;9.73;3.10;;;8.80;99.90;;;;;;5012115;28;20623;-79
2022/12/22 10:55:47;;;;;;;12.53;3.10;;;8.80;99.90;;;;;;5011983;28;20496;-80
2022/12/22 10:58:16;;;;;;;11.20;2.57;;;8.80;99.90;;;;;;5011665;28;20206;-80
2022/12/22 11:00:59;;;;;;;9.70;2.47;;;8.90;99.90;;;;;;5011256;28;20235;-78
2022/12/22 11:03:30;;;;;;;14.07;3.17;;;8.90;99.90;;;;;;5012917;28;20278;-79
2022/12/22 11:05:58;;;;;;;7.87;2.93;;;8.90;99.90;;;;;;5012553;28;20186;-78
2022/12/22 11:08:25;;;;;;;16.27;4.50;;;8.90;99.90;;;;;;5011969;28;20607;-78
2022/12/22 11:10:56;;;;;;;13.47;5.80;;;9.00;99.90;;;;;;5012748;28;20278;-79
2022/12/22 11:13:39;;;;;;;9.97;4.43;;;9.00;99.90;;;;;;5015414;28;20237;-79
2022/12/22 11:16:17;;;;;;;13.90;4.47;;;9.10;99.90;;;;;;5032043;28;20282;-79
2022/12/22 11:18:58;;;;;;;12.33;5.30;;;9.10;99.90;;;;;;5012895;28;20272;-79
2022/12/22 11:21:35;;;;;;;16.70;4.40;;;9.10;99.90;;;;;;5011930;28;20219;-80
2022/12/22 11:24:12;;;;;;;13.77;4.93;;;9.20;99.90;;;;;;5011612;28;20700;-79
2022/12/22 11:26:50;;;;;;;15.93;5.20;;;9.20;99.90;;;;;;5012011;28;20209;-78
2022/12/22 11:29:36;;;;;;;11.73;4.20;;;9.20;99.90;;;;;;5011772;28;20195;-79
2022/12/22 11:32:24;;;;;;;8.57;3.50;;;9.20;99.90;;;;;;5013273;28;20199;-80
2022/12/22 11:34:58;;;;;;;17.60;3.67;;;9.30;99.90;;;;;;5031167;28;20615;-78
2022/12/22 11:37:33;;;;;;;11.50;3.43;;;9.40;99.90;;;;;;5031501;28;20201;-80
2022/12/22 11:40:09;;;;;;;9.57;3.17;;;9.40;99.90;;;;;;5021030;28;20644;-81
2022/12/22 11:43:00;;;;;;;9.77;3.77;;;9.40;99.90;;;;;;5011792;28;20521;-79
2022/12/22 11:45:43;;;;;;;10.77;5.03;;;9.40;99.90;;;;;;5012322;28;20491;-80
2022/12/22 11:48:29;;;;;;;18.80;7.07;;;9.50;99.90;;;;;;5012719;28;20785;-81
2022/12/22 11:50:58;;;;;;;14.60;8.60;;;9.50;99.90;;;;;;5011320;28;20803;-81
2022/12/22 11:53:55;;;;;;;17.43;8.07;;;9.50;99.90;;;;;;5012396;28;20291;-81
2022/12/22 11:56:24;;;;;;;20.13;9.57;;;9.50;99.90;;;;;;5011206;28;20289;-79
2022/12/22 11:59:07;;;;;;;13.67;7.50;;;9.50;99.90;;;;;;5021368;28;20695;-82
2022/12/22 12:01:52;;;;;;;14.43;5.40;;;9.50;99.90;;;;;;5033735;28;20488;-83
2022/12/22 12:04:52;;;;;;;12.60;5.73;;;9.50;99.90;;;;;;5026104;28;20286;-81
2022/12/22 12:07:25;;;;;;;14.90;7.30;;;9.50;99.90;;;;;;5014686;28;20787;-79
2022/12/22 12:10:02;;;;;;;11.47;5.90;;;9.50;99.90;;;;;;5014840;28;20202;-79
2022/12/22 12:12:41;;;;;;;14.97;5.40;;;9.50;99.90;;;;;;5015278;28;20198;-80
2022/12/22 12:15:29;;;;;;;10.57;5.27;;;9.60;99.90;;;;;;5014808;28;20221;-81
2022/12/22 12:18:28;;;;;;;11.77;7.13;;;9.50;99.90;;;;;;5015824;28;20238;-82
2022/12/22 12:21:10;;;;;;;14.20;8.30;;;9.50;99.90;;;;;;5015548;28;20286;-80
2022/12/22 12:24:08;;;;;;;16.93;9.73;;;9.50;99.90;;;;;;5015019;28;20235;-80
2022/12/22 12:26:40;;;;;;;20.40;11.10;;;9.40;99.90;;;;;;5014637;28;20223;-80
2022/12/22 12:29:16;;;;;;;14.53;10.30;;;9.30;99.90;;;;;;5014852;28;20467;-80
2022/12/22 12:31:48;;;;;;;21.97;10.43;;;9.20;99.90;;;;;;5014899;28;20230;-80
2022/12/22 12:34:17;;;;;;;20.23;12.93;;;9.20;99.90;;;;;;5015152;28;20697;-80
2022/12/22 12:36:50;;;;;;;18.53;9.50;;;9.10;99.90;;;;;;5014511;28;20199;-80
2022/12/22 12:39:25;;;;;;;25.50;11.80;;;9.10;99.90;;;;;;5014116;28;20204;-80
2022/12/22 12:42:01;;;;;;;15.70;10.03;;;9.00;99.90;;;;;;5014772;28;20195;-80
2022/12/22 12:44:31;;;;;;;16.77;10.93;;;9.00;99.90;;;;;;5014892;28;20282;-80
2022/12/22 12:47:08;;;;;;;18.20;9.63;;;8.90;99.90;;;;;;5013796;28;20200;-80
2022/12/22 12:50:30;;;;;;;12.73;8.33;;;8.90;99.90;;;;;;5013494;28;20277;-80
2022/12/22 12:53:09;;;;;;;18.23;9.60;;;8.90;99.90;;;;;;5013616;28;20570;-80
2022/12/22 12:55:58;;;;;;;14.53;9.33;;;8.90;99.90;;;;;;5014330;28;20210;-80
2022/12/22 12:58:49;;;;;;;16.03;7.70;;;8.80;99.90;;;;;;5014638;28;20195;-80
2022/12/22 13:01:48;;;;;;;17.00;8.93;;;8.80;99.90;;;;;;5014088;28;20345;-80
2022/12/22 13:05:13;;;;;;;15.43;10.10;;;8.80;99.90;;;;;;5007289;28;20293;-80
2022/12/22 13:08:20;;;;;;;16.47;9.57;;;8.80;99.90;;;;;;5014512;28;20207;-81
2022/12/22 13:11:20;;;;;;;13.40;8.93;;;8.70;99.90;;;;;;5014037;28;20237;-80
2022/12/22 13:13:49;;;;;;;15.50;8.47;;;8.70;99.90;;;;;;5013848;28;20238;-80
2022/12/22 13:16:34;;;;;;;13.37;8.27;;;8.60;99.90;;;;;;5013914;28;20214;-79
2022/12/22 13:19:16;;;;;;;15.13;8.73;;;8.60;99.90;;;;;;5014048;28;20192;-79
2022/12/22 13:21:45;;;;;;;16.93;9.60;;;8.60;99.90;;;;;;5013716;28;20188;-80
2022/12/22 13:24:22;;;;;;;19.00;10.33;;;8.70;99.90;;;;;;5027740;28;20195;-80
2022/12/22 13:26:53;;;;;;;22.43;12.87;;;8.60;99.90;;;;;;5033994;28;20191;-81
2022/12/22 13:29:27;;;;;;;21.93;12.27;;;8.70;99.90;;;;;;5027383;28;20199;-80
2022/12/22 13:31:57;;;;;;;15.10;11.40;;;8.70;99.90;;;;;;5014342;28;20227;-81
2022/12/22 13:34:39;;;;;;;18.63;10.70;;;8.70;99.90;;;;;;5013230;28;20322;-80
2022/12/22 13:37:17;;;;;;;17.83;11.07;;;8.70;99.90;;;;;;5013399;28;20290;-78
2022/12/22 13:40:15;;;;;;;20.60;11.60;;;8.60;99.90;;;;;;5013599;28;20564;-80
2022/12/22 13:42:47;;;;;;;18.43;10.60;;;8.70;99.90;;;;;;5012427;28;20226;-80
2022/12/22 13:45:39;;;;;;;19.20;11.00;;;8.80;99.90;;;;;;5013212;28;20291;-79
2022/12/22 13:48:12;;;;;;;20.37;10.40;;;8.70;99.90;;;;;;4998901;28;20286;-80
2022/12/22 13:50:44;;;;;;;13.67;9.77;;;8.80;99.90;;;;;;5012270;28;20442;-80
2022/12/22 13:53:16;;;;;;;13.60;9.90;;;8.80;99.90;;;;;;5022126;28;20694;-79
2022/12/22 13:55:47;;;;;;;15.17;10.07;;;8.80;99.90;;;;;;5031716;28;20214;-81
2022/12/22 13:58:25;;;;;;;14.40;10.20;;;8.80;99.90;;;;;;5033572;28;20281;-79
2022/12/22 14:01:01;;;;;;;16.07;10.70;;;8.90;99.90;;;;;;5033174;28;20214;-81
2022/12/22 14:03:28;;;;;;;17.70;10.87;;;8.80;99.90;;;;;;5032347;28;20310;-80
2022/12/22 14:05:55;;;;;;;18.20;11.63;;;8.80;99.90;;;;;;5024235;28;20257;-80
2022/12/22 14:08:23;;;;;;;23.30;12.03;;;8.80;99.90;;;;;;5013163;28;20187;-81
2022/12/22 14:10:51;;;;;;;18.53;11.83;;;8.80;99.90;;;;;;5012869;28;20621;-82
2022/12/22 14:13:24;;;;;;;14.87;11.90;;;8.80;99.90;;;;;;5013173;28;20196;-80
2022/12/22 14:16:00;;;;;;;19.07;12.60;;;8.90;99.90;;;;;;5013352;28;20286;-80
2022/12/22 14:18:27;;;;;;;15.17;12.70;;;8.80;99.90;;;;;;5012401;28;20183;-80
2022/12/22 14:20:54;;;;;;;21.20;13.83;;;8.80;99.90;;;;;;5013326;28;20290;-79
2022/12/22 14:23:23;;;;;;;21.30;13.20;;;8.90;99.90;;;;;;5012207;28;20743;-80
2022/12/22 14:25:52;;;;;;;22.93;14.87;;;8.90;99.90;;;;;;5012478;28;20227;-80
2022/12/22 14:28:23;;;;;;;19.83;13.83;;;8.90;99.90;;;;;;5013670;28;20286;-80
2022/12/22 14:30:53;;;;;;;21.13;13.67;;;8.90;99.90;;;;;;5012591;28;20562;-81
2022/12/22 14:33:31;;;;;;;20.00;13.63;;;8.90;99.90;;;;;;5012628;28;20207;-82
2022/12/22 14:36:06;;;;;;;25.93;14.07;;;8.90;99.90;;;;;;5012537;28;20509;-81
2022/12/22 14:38:39;;;;;;;21.13;14.57;;;8.80;99.90;;;;;;5011977;28;20282;-79
2022/12/22 14:41:39;;;;;;;21.23;15.03;;;8.90;99.90;;;;;;5012432;28;20203;-80
2022/12/22 14:44:01;;;;;;;28.53;16.80;;;8.80;99.90;;;;;;5012247;28;20587;-80
2022/12/22 14:46:29;;;;;;;25.43;18.17;;;8.80;99.90;;;;;;5010766;28;20610;-79
2022/12/22 14:48:59;;;;;;;24.10;17.10;;;8.80;99.90;;;;;;5012352;28;20290;-81
2022/12/22 14:51:27;;;;;;;25.10;17.50;;;8.80;99.90;;;;;;5012475;28;20231;-81
2022/12/22 14:53:56;;;;;;;25.27;17.90;;;8.80;99.90;;;;;;5011795;28;20243;-80
2022/12/22 14:56:24;;;;;;;23.80;18.73;;;8.80;99.90;;;;;;5012620;28;20242;-80
2022/12/22 14:58:51;;;;;;;27.10;17.63;;;8.80;99.90;;;;;;5011989;28;20346;-79
2022/12/22 15:01:23;;;;;;;32.60;19.37;;;8.80;99.90;;;;;;5012435;28;20226;-81
2022/12/22 15:04:07;;;;;;;28.17;18.70;;;8.70;99.90;;;;;;5027496;28;20207;-81
2022/12/22 15:06:38;;;;;;;24.27;18.77;;;8.70;99.90;;;;;;5028702;28;20203;-81
2022/12/22 15:09:10;;;;;;;25.73;18.17;;;8.70;99.90;;;;;;5012729;28;20521;-80
2022/12/22 15:11:41;;;;;;;26.17;18.73;;;8.70;99.90;;;;;;5019861;28;20212;-81
2022/12/22 15:14:14;;;;;;;30.43;19.63;;;8.70;99.90;;;;;;5030703;28;20207;-81
2022/12/22 15:16:43;;;;;;;27.20;19.00;;;8.70;99.90;;;;;;5013693;28;20291;-81
2022/12/22 15:19:17;;;;;;;32.40;19.67;;;8.70;99.90;;;;;;5031050;28;20206;-80
2022/12/22 15:21:44;;;;;;;31.60;20.57;;;8.70;99.90;;;;;;5028985;28;20229;-80
2022/12/22 15:24:12;;;;;;;35.37;21.57;;;8.70;99.90;;;;;;5020074;28;20235;-80
2022/12/22 15:26:39;;;;;;;30.13;21.17;;;8.70;99.90;;;;;;5012073;28;20588;-80
2022/12/22 15:29:06;;;;;;;34.67;22.37;;;8.60;99.90;;;;;;5028005;28;20302;-81
2022/12/22 15:31:32;;;;;;;35.60;22.07;;;8.60;99.90;;;;;;5032069;28;20201;-80
2022/12/22 15:34:05;;;;;;;35.93;23.20;;;8.60;99.90;;;;;;5030735;28;20213;-80
2022/12/22 15:36:32;;;;;;;36.50;23.17;;;8.60;99.90;;;;;;5026402;28;20207;-80
2022/12/22 15:38:59;;;;;;;37.47;23.27;;;8.60;99.90;;;;;;5031996;28;20199;-82
2022/12/22 15:41:25;;;;;;;35.83;23.67;;;8.60;99.90;;;;;;5035342;28;20203;-80
2022/12/22 15:43:52;;;;;;;34.43;23.20;;;8.60;99.90;;;;;;5029279;28;20205;-81
2022/12/22 15:46:20;;;;;;;40.10;25.10;;;8.60;99.90;;;;;;5035629;28;20233;-80
2022/12/22 15:48:47;;;;;;;41.20;25.27;;;8.60;99.90;;;;;;5035061;28;20217;-81
2022/12/22 15:51:22;;;;;;;38.57;25.10;;;8.50;99.90;;;;;;5017261;28;20322;-80
2022/12/22 15:53:51;;;;;;;43.30;26.30;;;8.50;99.90;;;;;;5030066;28;20196;-81
2022/12/22 15:56:22;;;;;;;36.73;26.20;;;8.50;99.90;;;;;;5027485;28;20788;-82
2022/12/22 15:58:49;;;;;;;44.27;25.27;;;8.50;99.90;;;;;;5030505;28;20191;-83
2022/12/22 16:01:16;;;;;;;42.37;27.20;;;8.50;99.90;;;;;;5016452;28;20230;-80
2022/12/22 16:03:43;;;;;;;43.93;26.50;;;8.50;99.90;;;;;;5015346;28;20667;-81
2022/12/22 16:06:13;;;;;;;38.43;26.97;;;8.50;99.90;;;;;;5015960;28;20197;-82
2022/12/22 16:08:43;;;;;;;40.90;25.37;;;8.50;99.90;;;;;;5015822;28;20207;-80
2022/12/22 16:11:10;;;;;;;44.27;27.90;;;8.50;99.90;;;;;;5014598;28;20199;-82
2022/12/22 16:13:38;;;;;;;47.70;27.83;;;8.50;99.90;;;;;;5015562;28;20521;-81
2022/12/22 16:16:07;;;;;;;41.27;26.03;;;8.50;99.90;;;;;;5015857;28;20310;-80
2022/12/22 16:18:34;;;;;;;47.13;28.07;;;8.50;99.90;;;;;;5024137;28;20303;-79
2022/12/22 16:21:06;;;;;;;44.43;27.27;;;8.50;99.90;;;;;;5023766;28;20294;-81
2022/12/22 16:23:35;;;;;;;45.27;29.20;;;8.50;99.90;;;;;;5026914;28;20199;-81
2022/12/22 16:26:04;;;;;;;46.43;28.43;;;8.50;99.90;;;;;;5023544;28;20206;-81
2022/12/22 16:28:32;;;;;;;45.37;26.97;;;8.50;99.90;;;;;;5026623;28;20678;-81
2022/12/22 16:31:00;;;;;;;50.47;30.00;;;8.50;99.90;;;;;;5034147;28;20202;-80
2022/12/22 16:33:27;;;;;;;49.33;30.53;;;8.50;99.90;;;;;;5035057;28;20209;-81
2022/12/22 16:35:54;;;;;;;46.43;29.80;;;8.50;99.90;;;;;;5023963;28;20235;-81
2022/12/22 16:38:21;;;;;;;49.47;30.87;;;8.50;99.90;;;;;;5013955;28;20199;-80
2022/12/22 16:40:51;;;;;;;44.93;29.03;;;8.50;99.90;;;;;;5014890;28;20690;-81
2022/12/22 16:43:22;;;;;;;52.00;29.87;;;8.50;99.90;;;;;;5015842;28;20207;-81